Terminal Aerodrome Forecast
Issued by NWS

Home | Current Version | Previous Version | Text Only | Print | Product List | Glossary On
Versions: 1 2 3 4 5 6 7 8 9 10 11 12 13 14 15 16 17 18 19 20 21 22 23 24 25
000
FTAK31 PAFA 131130
TAFATA
TAF
PATA 131130Z 1312/1412 VRB03KT P6SM SCT100
     FM132000 24010KT P6SM VCSH BKN050 OVC100
     FM140600 24008KT P6SM -SHRA SCT035 BKN050 OVC100=

USA.gov is the U.S. government's official web portal to all federal, state and local government web resources and services.